sensor_id;sensor_type;location;lat;lon;timestamp;temperature;humidity
10441;DHT22;5268;49.346;9.522;2023-02-15T04:07:02;0.60;99.90
10441;DHT22;5268;49.346;9.522;2023-02-15T04:12:04;0.60;99.90
10441;DHT22;5268;49.346;9.522;2023-02-15T04:17:07;0.70;99.90
10441;DHT22;5268;49.346;9.522;2023-02-15T04:22:10;0.70;99.90
10441;DHT22;5268;49.346;9.522;2023-02-15T04:27:30;0.70;99.90
10441;DHT22;5268;49.346;9.522;2023-02-15T04:32:32;0.70;99.90
10441;DHT22;5268;49.346;9.522;2023-02-15T04:37:35;0.50;99.90
10441;DHT22;5268;49.346;9.522;2023-02-15T04:42:37;0.50;99.90
10441;DHT22;5268;49.346;9.522;2023-02-15T04:47:39;0.40;99.90
10441;DHT22;5268;49.346;9.522;2023-02-15T04:52:44;0.30;99.90
10441;DHT22;5268;49.346;9.522;2023-02-15T04:57:46;0.40;99.90
10441;DHT22;5268;49.346;9.522;2023-02-15T05:02:48;0.40;99.90
10441;DHT22;5268;49.346;9.522;2023-02-15T05:07:52;0.50;99.90
10441;DHT22;5268;49.346;9.522;2023-02-15T05:12:54;0.60;99.90
10441;DHT22;5268;49.346;9.522;2023-02-15T05:17:56;0.60;99.90
10441;DHT22;5268;49.346;9.522;2023-02-15T05:22:59;0.70;99.90
10441;DHT22;5268;49.346;9.522;2023-02-15T05:28:01;0.50;99.90
10441;DHT22;5268;49.346;9.522;2023-02-15T05:33:21;0.50;99.90
10441;DHT22;5268;49.346;9.522;2023-02-15T05:38:24;0.20;99.90
10441;DHT22;5268;49.346;9.522;2023-02-15T05:43:26;0.30;99.90
10441;DHT22;5268;49.346;9.522;2023-02-15T05:48:29;0.30;99.90
10441;DHT22;5268;49.346;9.522;2023-02-15T05:53:35;0.30;99.90
10441;DHT22;5268;49.346;9.522;2023-02-15T05:58:38;0.40;99.90
10441;DHT22;5268;49.346;9.522;2023-02-15T06:03:40;0.40;99.90
10441;DHT22;5268;49.346;9.522;2023-02-15T06:08:44;0.30;99.90
10441;DHT22;5268;49.346;9.522;2023-02-15T06:13:46;0.30;99.90
10441;DHT22;5268;49.346;9.522;2023-02-15T06:18:48;0.30;99.90
10441;DHT22;5268;49.346;9.522;2023-02-15T06:23:51;0.40;99.90
10441;DHT22;5268;49.346;9.522;2023-02-15T06:28:53;0.30;99.90
10441;DHT22;5268;49.346;9.522;2023-02-15T06:33:55;0.40;99.90
10441;DHT22;5268;49.346;9.522;2023-02-15T06:39:02;0.30;99.90
10441;DHT22;5268;49.346;9.522;2023-02-15T06:44:05;0.10;99.90
10441;DHT22;5268;49.346;9.522;2023-02-15T06:49:07;0.20;99.90
10441;DHT22;5268;49.346;9.522;2023-02-15T06:54:10;0.20;99.90
10441;DHT22;5268;49.346;9.522;2023-02-15T06:59:12;0.10;99.90
10441;DHT22;5268;49.346;9.522;2023-02-15T07:04:14;0.10;99.90
10441;DHT22;5268;49.346;9.522;2023-02-15T07:09:18;0.10;99.90
10441;DHT22;5268;49.346;9.522;2023-02-15T07:14:20;0.20;99.90
10441;DHT22;5268;49.346;9.522;2023-02-15T07:19:22;0.40;99.90
10441;DHT22;5268;49.346;9.522;2023-02-15T07:24:26;0.40;99.90
10441;DHT22;5268;49.346;9.522;2023-02-15T07:29:30;0.30;99.90
10441;DHT22;5268;49.346;9.522;2023-02-15T07:34:36;0.30;99.90
10441;DHT22;5268;49.346;9.522;2023-02-15T07:40:01;0.00;99.90
10441;DHT22;5268;49.346;9.522;2023-02-15T07:45:35;0.20;99.90
10441;DHT22;5268;49.346;9.522;2023-02-15T07:51:18;0.30;99.90
10441;DHT22;5268;49.346;9.522;2023-02-15T08:09:07;0.20;99.90
10441;DHT22;5268;49.346;9.522;2023-02-15T08:20:37;0.50;99.90
10441;DHT22;5268;49.346;9.522;2023-02-15T08:25:55;0.40;99.90
10441;DHT22;5268;49.346;9.522;2023-02-15T08:31:24;0.60;99.90
10441;DHT22;5268;49.346;9.522;2023-02-15T08:36:36;0.70;99.90
10441;DHT22;5268;49.346;9.522;2023-02-15T08:41:42;0.80;99.90
10441;DHT22;5268;49.346;9.522;2023-02-15T08:46:47;0.70;99.90
10441;DHT22;5268;49.346;9.522;2023-02-15T08:52:09;0.70;99.90
10441;DHT22;5268;49.346;9.522;2023-02-15T08:57:37;0.80;99.90
10441;DHT22;5268;49.346;9.522;2023-02-15T09:03:30;0.90;99.90
10441;DHT22;5268;49.346;9.522;2023-02-15T09:09:01;1.10;99.90
10441;DHT22;5268;49.346;9.522;2023-02-15T09:31:28;1.10;99.90
10441;DHT22;5268;49.346;9.522;2023-02-15T09:49:56;1.30;99.90
10441;DHT22;5268;49.346;9.522;2023-02-15T10:01:56;1.30;99.90
10441;DHT22;5268;49.346;9.522;2023-02-15T10:53:49;2.70;99.90
10441;DHT22;5268;49.346;9.522;2023-02-15T11:16:11;3.50;99.90
10441;DHT22;5268;49.346;9.522;2023-02-15T11:21:21;3.90;99.90
10441;DHT22;5268;49.346;9.522;2023-02-15T11:26:29;4.40;99.90
10441;DHT22;5268;49.346;9.522;2023-02-15T11:31:41;4.70;99.90
10441;DHT22;5268;49.346;9.522;2023-02-15T11:36:45;5.00;99.90
10441;DHT22;5268;49.346;9.522;2023-02-15T11:41:53;5.10;99.90
10441;DHT22;5268;49.346;9.522;2023-02-15T11:46:56;5.40;99.90
10441;DHT22;5268;49.346;9.522;2023-02-15T11:52:00;5.80;99.90
10441;DHT22;5268;49.346;9.522;2023-02-15T11:57:11;6.10;99.90
10441;DHT22;5268;49.346;9.522;2023-02-15T12:02:18;6.40;99.90
10441;DHT22;5268;49.346;9.522;2023-02-15T12:07:24;6.70;99.90
10441;DHT22;5268;49.346;9.522;2023-02-15T12:12:30;6.70;99.90
10441;DHT22;5268;49.346;9.522;2023-02-15T12:17:34;6.80;99.90
10441;DHT22;5268;49.346;9.522;2023-02-15T12:22:45;7.10;99.90
10441;DHT22;5268;49.346;9.522;2023-02-15T12:27:49;7.30;99.90
10441;DHT22;5268;49.346;9.522;2023-02-15T12:32:54;7.60;99.90
10441;DHT22;5268;49.346;9.522;2023-02-15T12:38:02;7.80;99.90
10441;DHT22;5268;49.346;9.522;2023-02-15T12:43:25;8.00;99.90
10441;DHT22;5268;49.346;9.522;2023-02-15T12:48:27;8.30;99.90
10441;DHT22;5268;49.346;9.522;2023-02-15T12:53:32;8.40;99.90
10441;DHT22;5268;49.346;9.522;2023-02-15T12:58:36;8.60;99.90
10441;DHT22;5268;49.346;9.522;2023-02-15T13:03:40;8.70;99.90
10441;DHT22;5268;49.346;9.522;2023-02-15T13:08:53;8.60;99.90
10441;DHT22;5268;49.346;9.522;2023-02-15T13:13:59;8.60;99.90
10441;DHT22;5268;49.346;9.522;2023-02-15T13:19:06;8.70;99.90
10441;DHT22;5268;49.346;9.522;2023-02-15T13:24:17;8.70;99.90
10441;DHT22;5268;49.346;9.522;2023-02-15T13:29:24;8.70;99.90
10441;DHT22;5268;49.346;9.522;2023-02-15T13:34:30;8.80;99.90
10441;DHT22;5268;49.346;9.522;2023-02-15T13:39:37;8.80;99.90
10441;DHT22;5268;49.346;9.522;2023-02-15T13:44:59;8.80;99.90
10441;DHT22;5268;49.346;9.522;2023-02-15T13:50:41;8.80;99.90
10441;DHT22;5268;49.346;9.522;2023-02-15T13:55:51;8.80;99.90
10441;DHT22;5268;49.346;9.522;2023-02-15T14:01:05;8.80;99.90
10441;DHT22;5268;49.346;9.522;2023-02-15T14:06:17;8.80;99.90
10441;DHT22;5268;49.346;9.522;2023-02-15T14:11:27;8.80;99.90
10441;DHT22;5268;49.346;9.522;2023-02-15T14:16:40;8.90;99.90
10441;DHT22;5268;49.346;9.522;2023-02-15T14:21:50;8.90;99.90
10441;DHT22;5268;49.346;9.522;2023-02-15T14:27:01;8.90;99.90
10441;DHT22;5268;49.346;9.522;2023-02-15T14:32:11;8.90;99.90
10441;DHT22;5268;49.346;9.522;2023-02-15T14:37:18;8.90;99.90
10441;DHT22;5268;49.346;9.522;2023-02-15T14:42:24;8.90;99.90
10441;DHT22;5268;49.346;9.522;2023-02-15T14:47:35;8.90;99.90
10441;DHT22;5268;49.346;9.522;2023-02-15T14:53:14;8.90;99.90
10441;DHT22;5268;49.346;9.522;2023-02-15T14:58:16;8.90;99.90
10441;DHT22;5268;49.346;9.522;2023-02-15T15:03:23;8.90;99.90
10441;DHT22;5268;49.346;9.522;2023-02-15T15:08:31;9.00;99.90
10441;DHT22;5268;49.346;9.522;2023-02-15T15:13:51;9.10;99.90
10441;DHT22;5268;49.346;9.522;2023-02-15T15:18:56;9.10;99.90
10441;DHT22;5268;49.346;9.522;2023-02-15T15:23:58;9.10;99.90
10441;DHT22;5268;49.346;9.522;2023-02-15T15:29:01;9.10;99.90
10441;DHT22;5268;49.346;9.522;2023-02-15T15:34:28;9.10;99.90
10441;DHT22;5268;49.346;9.522;2023-02-15T15:39:57;9.00;99.90
10441;DHT22;5268;49.346;9.522;2023-02-15T15:45:32;9.00;99.90
10441;DHT22;5268;49.346;9.522;2023-02-15T15:50:41;9.00;99.90
10441;DHT22;5268;49.346;9.522;2023-02-15T15:55:45;9.00;99.90
10441;DHT22;5268;49.346;9.522;2023-02-15T16:00:50;8.90;99.90
10441;DHT22;5268;49.346;9.522;2023-02-15T16:05:56;8.80;99.90
10441;DHT22;5268;49.346;9.522;2023-02-15T16:11:01;8.80;99.90
10441;DHT22;5268;49.346;9.522;2023-02-15T16:16:11;8.70;99.90
10441;DHT22;5268;49.346;9.522;2023-02-15T16:21:18;8.50;99.90
10441;DHT22;5268;49.346;9.522;2023-02-15T16:26:35;8.40;99.90
10441;DHT22;5268;49.346;9.522;2023-02-15T16:31:41;8.20;99.90
10441;DHT22;5268;49.346;9.522;2023-02-15T16:36:44;8.00;99.90
10441;DHT22;5268;49.346;9.522;2023-02-15T16:41:47;7.90;99.90
10441;DHT22;5268;49.346;9.522;2023-02-15T16:46:51;7.70;99.90
10441;DHT22;5268;49.346;9.522;2023-02-15T16:51:58;7.50;99.90
10441;DHT22;5268;49.346;9.522;2023-02-15T16:57:01;7.30;99.90
10441;DHT22;5268;49.346;9.522;2023-02-15T17:02:04;7.10;99.90
10441;DHT22;5268;49.346;9.522;2023-02-15T17:07:15;7.00;99.90
10441;DHT22;5268;49.346;9.522;2023-02-15T17:12:44;6.80;99.90
10441;DHT22;5268;49.346;9.522;2023-02-15T17:17:47;6.70;99.90
10441;DHT22;5268;49.346;9.522;2023-02-15T17:22:51;6.60;99.90
10441;DHT22;5268;49.346;9.522;2023-02-15T17:27:55;6.40;99.90
10441;DHT22;5268;49.346;9.522;2023-02-15T17:32:59;6.30;99.90
10441;DHT22;5268;49.346;9.522;2023-02-15T17:38:06;6.00;99.90
10441;DHT22;5268;49.346;9.522;2023-02-15T17:43:08;5.90;99.90
10441;DHT22;5268;49.346;9.522;2023-02-15T17:48:18;5.70;99.90
10441;DHT22;5268;49.346;9.522;2023-02-15T17:53:23;5.60;99.90
10441;DHT22;5268;49.346;9.522;2023-02-15T17:58:26;5.50;99.90
10441;DHT22;5268;49.346;9.522;2023-02-15T18:03:38;5.30;99.90
10441;DHT22;5268;49.346;9.522;2023-02-15T18:08:59;5.20;99.90
10441;DHT22;5268;49.346;9.522;2023-02-15T18:14:19;5.10;99.90
10441;DHT22;5268;49.346;9.522;2023-02-15T18:19:22;5.00;99.90
10441;DHT22;5268;49.346;9.522;2023-02-15T18:24:26;4.80;99.90
10441;DHT22;5268;49.346;9.522;2023-02-15T18:29:28;4.70;99.90
10441;DHT22;5268;49.346;9.522;2023-02-15T18:34:32;4.60;99.90
10441;DHT22;5268;49.346;9.522;2023-02-15T18:39:38;4.50;99.90
10441;DHT22;5268;49.346;9.522;2023-02-15T18:44:42;4.40;99.90
10441;DHT22;5268;49.346;9.522;2023-02-15T18:49:44;4.30;99.90
10441;DHT22;5268;49.346;9.522;2023-02-15T18:54:48;4.20;99.90
10441;DHT22;5268;49.346;9.522;2023-02-15T18:59:52;4.10;99.90
10441;DHT22;5268;49.346;9.522;2023-02-15T19:04:54;4.00;99.90
10441;DHT22;5268;49.346;9.522;2023-02-15T19:09:59;3.90;99.90
10441;DHT22;5268;49.346;9.522;2023-02-15T19:15:02;3.80;99.90
10441;DHT22;5268;49.346;9.522;2023-02-15T19:20:05;3.70;99.90
10441;DHT22;5268;49.346;9.522;2023-02-15T19:25:14;3.70;99.90
10441;DHT22;5268;49.346;9.522;2023-02-15T19:30:19;3.60;99.90
10441;DHT22;5268;49.346;9.522;2023-02-15T19:35:24;3.50;99.90
10441;DHT22;5268;49.346;9.522;2023-02-15T19:40:29;3.40;99.90
10441;DHT22;5268;49.346;9.522;2023-02-15T19:45:32;3.20;99.90
10441;DHT22;5268;49.346;9.522;2023-02-15T19:50:34;3.10;99.90
10441;DHT22;5268;49.346;9.522;2023-02-15T19:55:39;3.00;99.90
10441;DHT22;5268;49.346;9.522;2023-02-15T20:00:41;2.90;99.90
10441;DHT22;5268;49.346;9.522;2023-02-15T20:05:43;2.80;99.90
10441;DHT22;5268;49.346;9.522;2023-02-15T20:10:47;2.70;99.90
10441;DHT22;5268;49.346;9.522;2023-02-15T20:15:50;2.60;99.90
10441;DHT22;5268;49.346;9.522;2023-02-15T20:20:53;2.50;99.90
10441;DHT22;5268;49.346;9.522;2023-02-15T20:25:59;2.40;99.90
10441;DHT22;5268;49.346;9.522;2023-02-15T20:31:01;2.40;99.90
10441;DHT22;5268;49.346;9.522;2023-02-15T20:36:03;2.40;99.90
10441;DHT22;5268;49.346;9.522;2023-02-15T20:41:13;2.30;99.90
10441;DHT22;5268;49.346;9.522;2023-02-15T20:46:34;2.30;99.90
10441;DHT22;5268;49.346;9.522;2023-02-15T20:51:37;2.30;99.90
10441;DHT22;5268;49.346;9.522;2023-02-15T20:56:43;2.20;99.90
10441;DHT22;5268;49.346;9.522;2023-02-15T21:01:46;2.20;99.90
10441;DHT22;5268;49.346;9.522;2023-02-15T21:06:49;2.10;99.90
10441;DHT22;5268;49.346;9.522;2023-02-15T21:11:54;2.20;99.90
10441;DHT22;5268;49.346;9.522;2023-02-15T21:16:58;2.10;99.90
10441;DHT22;5268;49.346;9.522;2023-02-15T21:22:01;2.10;99.90
10441;DHT22;5268;49.346;9.522;2023-02-15T21:27:10;2.00;99.90
10441;DHT22;5268;49.346;9.522;2023-02-15T21:32:15;2.00;99.90
10441;DHT22;5268;49.346;9.522;2023-02-15T21:37:29;2.00;99.90
10441;DHT22;5268;49.346;9.522;2023-02-15T21:42:34;1.90;99.90
10441;DHT22;5268;49.346;9.522;2023-02-15T21:47:53;1.90;99.90
10441;DHT22;5268;49.346;9.522;2023-02-15T21:52:56;1.80;99.90
10441;DHT22;5268;49.346;9.522;2023-02-15T21:58:00;1.70;99.90
10441;DHT22;5268;49.346;9.522;2023-02-15T22:03:04;1.70;99.90
10441;DHT22;5268;49.346;9.522;2023-02-15T22:08:10;1.60;99.90
10441;DHT22;5268;49.346;9.522;2023-02-15T22:13:16;1.60;99.90
10441;DHT22;5268;49.346;9.522;2023-02-15T22:18:22;1.60;99.90
10441;DHT22;5268;49.346;9.522;2023-02-15T22:23:24;1.50;99.90
10441;DHT22;5268;49.346;9.522;2023-02-15T22:28:31;1.50;99.90
10441;DHT22;5268;49.346;9.522;2023-02-15T22:33:34;1.30;99.90
10441;DHT22;5268;49.346;9.522;2023-02-15T22:38:36;1.30;99.90
10441;DHT22;5268;49.346;9.522;2023-02-15T22:43:41;1.20;99.90
10441;DHT22;5268;49.346;9.522;2023-02-15T22:48:45;1.20;99.90
10441;DHT22;5268;49.346;9.522;2023-02-15T22:53:48;1.20;99.90
